Fond du Lac, Wisconsin
Current Conditions -  °F | °C
As of 3:53 AM on Wednesday 26 Nov 2014 (Local Time) from KFLD Reporting Station
Clear Clear  
Wind Chill:   Ceiling: Unl
Heat Index:   Visibility: 7mi
Dew Point:   Wind: 3mph
Humidity: 80%   Direction: 150°SSE
Pressure: 30.15"   Gusts: NA
Location:  43.77°N, 88.48°W
Report Text: KFLD 260953Z AUTO 15003KT 7SM CLR M13/M16 A3015 RMK AO2 SLP227 I1000 T11281156
Loading
Personal Weather Stations






























Interactive Weather Map New forecast layout! Learn more

10-Day Weather Forecast

Advertisements
Track Severe Weather on mobile